createdAt,value
2023-11-20T00:01:59.120Z,100782.78
2023-11-20T00:04:26.414Z,100793.44
2023-11-20T00:06:53.407Z,100786.19
2023-11-20T00:09:20.070Z,100780.97
2023-11-20T00:11:46.793Z,100785.56
2023-11-20T00:14:14.802Z,100789.22
2023-11-20T00:16:41.841Z,100785.81
2023-11-20T00:19:11.739Z,100785.91
2023-11-20T00:21:42.678Z,100774.56
2023-11-20T00:24:10.632Z,100795.88
2023-11-20T00:26:38.135Z,100792.34
2023-11-20T00:29:08.464Z,100786.16
2023-11-20T00:31:38.104Z,100784.47
2023-11-20T00:34:05.274Z,100786.28
2023-11-20T00:36:32.221Z,100785.44
2023-11-20T00:38:58.811Z,100785.56
2023-11-20T00:41:26.553Z,100778.53
2023-11-20T00:43:53.298Z,100789.19
2023-11-20T00:46:20.093Z,100791.97
2023-11-20T00:48:46.771Z,100797.28
2023-11-20T00:51:14.707Z,100796.44
2023-11-20T00:53:41.590Z,100797.44
2023-11-20T00:56:08.532Z,100794.88
2023-11-20T00:58:36.063Z,100798.50
2023-11-20T01:01:03.051Z,100799.47
2023-11-20T01:03:30.152Z,100799.59
2023-11-20T01:05:57.231Z,100797.03
2023-11-20T01:08:23.826Z,100809.50
2023-11-20T01:10:50.317Z,100809.63
2023-11-20T01:13:16.885Z,100808.78
2023-11-20T01:15:43.468Z,100805.25
2023-11-20T01:18:10.158Z,100802.72
2023-11-20T01:20:36.791Z,100812.41
2023-11-20T01:23:04.232Z,100815.06
2023-11-20T01:25:32.946Z,100807.22
2023-11-20T01:28:00.273Z,100809.88
2023-11-20T01:30:27.840Z,100814.34
2023-11-20T01:32:54.670Z,100824.13
2023-11-20T01:35:21.939Z,100824.13
2023-11-20T01:37:48.523Z,100820.63
2023-11-20T01:40:15.478Z,100824.28
2023-11-20T01:42:42.212Z,100828.75
2023-11-20T01:45:09.439Z,100826.19
2023-11-20T01:47:39.627Z,100826.31
2023-11-20T01:50:11.165Z,100834.31
2023-11-20T01:52:42.278Z,100833.47
2023-11-20T01:55:10.581Z,100821.09
2023-11-20T01:57:40.128Z,100824.75
2023-11-20T02:00:10.520Z,100827.41
2023-11-20T02:05:09.840Z,100831.88
2023-11-20T02:07:37.704Z,100834.56
2023-11-20T02:10:08.574Z,100835.50
2023-11-20T02:12:36.261Z,100833.81
2023-11-20T02:15:03.493Z,100832.13
2023-11-20T02:17:30.640Z,100838.28
2023-11-20T02:19:57.222Z,100834.88
2023-11-20T02:22:23.926Z,100844.56
2023-11-20T02:24:50.619Z,100832.34
2023-11-20T02:27:53.356Z,100842.03
2023-11-20T02:30:20.203Z,100823.50
2023-11-20T02:32:46.865Z,100842.13
2023-11-20T02:35:19.899Z,100827.25
2023-11-20T02:37:48.155Z,100836.09
2023-11-20T02:40:15.127Z,100831.63
2023-11-20T02:42:42.606Z,100826.38
2023-11-20T02:45:14.190Z,100821.06
2023-11-20T02:47:40.879Z,100829.06
2023-11-20T02:50:07.910Z,100831.84
2023-11-20T02:52:34.445Z,100823.84
2023-11-20T02:55:00.966Z,100821.28
2023-11-20T02:57:27.949Z,100820.44
2023-11-20T02:59:54.444Z,100808.13
2023-11-20T03:02:21.064Z,100820.59
2023-11-20T03:04:47.592Z,100827.69
2023-11-20T03:07:15.865Z,100823.25
2023-11-20T03:09:42.832Z,100821.66
2023-11-20T03:12:09.503Z,100825.16
2023-11-20T03:14:36.157Z,100830.50
2023-11-20T03:17:02.774Z,100818.88
2023-11-20T03:19:29.941Z,100831.34
2023-11-20T03:21:56.791Z,100832.38
2023-11-20T03:24:23.538Z,100836.78
2023-11-20T03:26:50.425Z,100845.69
2023-11-20T03:29:17.123Z,100844.84
2023-11-20T03:31:43.679Z,100836.00
2023-11-20T03:34:10.158Z,100834.44
2023-11-20T03:36:36.999Z,100830.91
2023-11-20T03:39:04.364Z,100837.19
2023-11-20T03:41:31.285Z,100841.66
2023-11-20T03:43:57.814Z,100830.19
2023-11-20T03:46:24.389Z,100837.19
2023-11-20T03:48:51.027Z,100835.50
2023-11-20T03:51:18.395Z,100841.81
2023-11-20T03:53:45.404Z,100832.97
2023-11-20T03:56:16.563Z,100838.28
2023-11-20T03:58:45.646Z,100836.56
2023-11-20T04:01:13.137Z,100834.75
2023-11-20T04:03:40.051Z,100840.09
2023-11-20T04:06:07.099Z,100838.28
2023-11-20T04:08:33.730Z,100835.72
2023-11-20T04:11:00.240Z,100842.03
2023-11-20T04:13:26.797Z,100841.06
2023-11-20T04:15:53.487Z,100839.38
2023-11-20T04:18:20.275Z,100841.06
2023-11-20T04:20:47.104Z,100847.22
2023-11-20T04:23:13.943Z,100839.25
2023-11-20T04:25:40.504Z,100837.56
2023-11-20T04:28:07.291Z,100847.34
2023-11-20T04:30:33.829Z,100851.84
2023-11-20T04:33:00.462Z,100849.19
2023-11-20T04:35:26.982Z,100845.53
2023-11-20T04:37:53.677Z,100849.03
2023-11-20T04:40:20.226Z,100849.88
2023-11-20T04:42:46.701Z,100849.88
2023-11-20T04:45:13.778Z,100853.53
2023-11-20T04:47:41.790Z,100848.19
2023-11-20T04:50:09.916Z,100849.19
2023-11-20T04:52:39.378Z,100858.00
2023-11-20T04:55:06.890Z,100848.44
2023-11-20T04:57:34.948Z,100845.88
2023-11-20T05:00:04.243Z,100843.19
2023-11-20T05:02:30.865Z,100846.00
2023-11-20T05:04:57.703Z,100843.34
2023-11-20T05:07:24.858Z,100845.16
2023-11-20T05:09:52.502Z,100847.91
2023-11-20T05:12:19.133Z,100849.72
2023-11-20T05:14:45.628Z,100847.06
2023-11-20T05:17:12.287Z,100842.72
2023-11-20T05:19:38.784Z,100840.28
2023-11-20T05:22:05.543Z,100845.59
2023-11-20T05:24:32.406Z,100844.72
2023-11-20T05:26:59.043Z,100844.84
2023-11-20T05:29:25.448Z,100849.34
2023-11-20T05:31:52.202Z,100851.16
2023-11-20T05:34:20.155Z,100856.47
2023-11-20T05:36:46.610Z,100855.59
2023-11-20T05:39:13.146Z,100852.94
2023-11-20T05:41:40.144Z,100854.75
2023-11-20T05:44:06.697Z,100857.41
2023-11-20T05:46:33.252Z,100850.41
2023-11-20T05:49:00.006Z,100848.69
2023-11-20T05:51:26.517Z,100855.00
2023-11-20T05:53:53.044Z,100851.59
2023-11-20T05:56:19.494Z,100850.72
2023-11-20T05:58:46.856Z,100861.38
2023-11-20T06:01:13.911Z,100855.22
2023-11-20T06:03:40.747Z,100864.16
2023-11-20T06:06:07.538Z,100864.28
2023-11-20T06:08:35.175Z,100866.94
2023-11-20T06:11:01.590Z,100877.56
2023-11-20T06:13:28.096Z,100878.66
2023-11-20T06:15:54.625Z,100884.84
2023-11-20T06:18:21.045Z,100884.94
2023-11-20T06:20:47.513Z,100881.44
2023-11-20T06:23:14.255Z,100886.00
2023-11-20T06:25:40.806Z,100876.44
2023-11-20T06:28:07.289Z,100880.06
2023-11-20T06:30:34.318Z,100888.03
2023-11-20T06:33:00.915Z,100878.47
2023-11-20T06:35:27.580Z,100883.03
2023-11-20T06:37:54.186Z,100884.25
2023-11-20T06:40:20.724Z,100888.81
2023-11-20T06:42:47.356Z,100893.28
2023-11-20T06:45:14.037Z,100893.28
2023-11-20T06:47:40.521Z,100896.91
2023-11-20T06:50:07.847Z,100901.38
2023-11-20T06:52:34.933Z,100906.72
2023-11-20T06:55:01.654Z,100901.47
2023-11-20T06:57:28.558Z,100906.81
2023-11-20T06:59:55.053Z,100899.88
2023-11-20T07:02:23.337Z,100912.44
2023-11-20T07:04:50.249Z,100914.38
2023-11-20T07:07:18.913Z,100907.34
2023-11-20T07:09:45.633Z,100903.84
2023-11-20T07:12:12.470Z,100902.25
2023-11-20T07:14:40.155Z,100905.88
2023-11-20T07:17:06.765Z,100914.81
2023-11-20T07:19:33.306Z,100918.41
2023-11-20T07:21:59.887Z,100912.16
2023-11-20T07:24:26.543Z,100925.47
2023-11-20T07:26:53.076Z,100921.94
2023-11-20T07:29:19.621Z,100924.47
2023-11-20T07:31:46.305Z,100926.28
2023-11-20T07:34:13.014Z,100924.59
2023-11-20T07:36:39.521Z,100921.94
2023-11-20T07:39:06.232Z,100926.38
2023-11-20T07:41:32.858Z,100945.00
2023-11-20T07:43:59.874Z,100940.56
2023-11-20T07:46:26.608Z,100948.41
2023-11-20T07:48:54.793Z,100939.69
2023-11-20T07:51:21.688Z,100940.75
2023-11-20T07:53:49.660Z,100940.88
2023-11-20T07:56:17.580Z,100949.91
2023-11-20T07:58:44.193Z,100952.56
2023-11-20T08:01:10.863Z,100950.03
2023-11-20T08:03:37.605Z,100947.47
2023-11-20T08:06:16.681Z,100945.78
2023-11-20T08:08:47.919Z,100951.19
2023-11-20T08:11:14.398Z,100944.28
2023-11-20T08:13:40.889Z,100948.00
2023-11-20T08:16:09.532Z,100947.91
2023-11-20T08:18:37.592Z,100955.75
2023-11-20T08:21:04.602Z,100952.03
2023-11-20T08:23:31.169Z,100951.09
2023-11-20T08:25:58.166Z,100949.28
2023-11-20T08:28:24.682Z,100946.50
2023-11-20T08:30:51.975Z,100949.16
2023-11-20T08:33:18.471Z,100950.88
2023-11-20T08:35:45.078Z,100949.06
2023-11-20T08:38:12.265Z,100950.75
2023-11-20T08:40:39.175Z,100957.03
2023-11-20T08:43:07.067Z,100948.22
2023-11-20T08:45:34.420Z,100950.75
2023-11-20T08:48:01.198Z,100949.59
2023-11-20T08:50:28.095Z,100947.44
2023-11-20T08:52:54.596Z,100948.00
2023-11-20T08:55:21.516Z,100940.53
2023-11-20T08:57:48.560Z,100944.47
2023-11-20T09:00:16.611Z,100945.97
2023-11-20T09:02:44.754Z,100939.03
2023-11-20T09:05:14.224Z,100937.53
2023-11-20T09:07:42.486Z,100940.31
2023-11-20T09:10:10.286Z,100940.09
2023-11-20T09:12:37.544Z,100943.59
2023-11-20T09:15:05.984Z,100933.09
2023-11-20T09:17:32.734Z,100928.63
2023-11-20T09:19:59.803Z,100934.25
2023-11-20T09:22:26.724Z,100938.72
2023-11-20T09:24:59.353Z,100944.03
2023-11-20T09:27:31.549Z,100935.31
2023-11-20T09:29:59.317Z,100932.78
2023-11-20T09:32:27.549Z,100937.25
2023-11-20T09:34:53.963Z,100941.59
2023-11-20T09:37:20.596Z,100945.09
2023-11-20T09:39:47.804Z,100935.53
2023-11-20T09:42:15.774Z,100933.84
2023-11-20T09:44:47.537Z,100934.91
2023-11-20T09:47:15.680Z,100930.66
2023-11-20T09:49:46.169Z,100927.28
2023-11-20T09:52:13.800Z,100921.06
2023-11-20T09:54:44.519Z,100919.28
2023-11-20T09:57:11.350Z,100927.28
2023-11-20T09:59:38.692Z,100927.16
2023-11-20T10:02:06.353Z,100928.00
2023-11-20T10:04:34.729Z,100932.16
2023-11-20T10:07:07.011Z,100929.50
2023-11-20T10:09:34.381Z,100935.53
2023-11-20T10:12:04.752Z,100935.22
2023-11-20T10:14:36.141Z,100934.16
2023-11-20T10:17:03.341Z,100930.53
2023-11-20T10:19:30.832Z,100935.75
2023-11-20T10:21:59.763Z,100934.56
2023-11-20T10:24:26.333Z,100936.16
2023-11-20T10:26:53.861Z,100934.03
2023-11-20T10:29:22.013Z,100935.50
2023-11-20T10:31:48.584Z,100934.44
2023-11-20T10:34:19.082Z,100931.66
2023-11-20T10:37:07.466Z,100936.97
2023-11-20T10:39:34.266Z,100930.09
2023-11-20T10:42:00.752Z,100923.16
2023-11-20T10:44:27.687Z,100922.28
2023-11-20T10:46:55.103Z,100918.69
2023-11-20T10:49:23.472Z,100918.47
2023-11-20T10:51:57.543Z,100916.66
2023-11-20T10:54:45.165Z,100912.78
2023-11-20T10:57:11.730Z,100916.19
2023-11-20T10:59:40.769Z,100916.09
2023-11-20T11:02:18.923Z,100910.78
2023-11-20T11:04:46.286Z,100923.22
2023-11-20T11:07:15.433Z,100914.38
2023-11-20T11:09:42.227Z,100907.16
2023-11-20T11:12:09.488Z,100909.81
2023-11-20T11:14:35.988Z,100906.19
2023-11-20T11:17:08.165Z,100908.75
2023-11-20T11:19:44.056Z,100908.38
2023-11-20T11:22:14.719Z,100905.41
2023-11-20T11:24:43.810Z,100905.69
2023-11-20T11:27:20.334Z,100895.25
2023-11-20T11:29:57.921Z,100894.03
2023-11-20T11:32:49.026Z,100893.19
2023-11-20T11:35:32.085Z,100887.03
2023-11-20T11:38:12.565Z,100890.66
2023-11-20T11:41:15.189Z,100892.47
2023-11-20T11:44:00.425Z,100887.16
2023-11-20T11:46:27.871Z,100881.84
2023-11-20T11:48:54.535Z,100880.94
2023-11-20T11:51:25.865Z,100879.16
2023-11-20T11:54:17.945Z,100882.53
2023-11-20T11:56:58.817Z,100884.38
2023-11-20T11:59:46.468Z,100885.19
2023-11-20T12:02:22.032Z,100881.69
2023-11-20T12:04:58.087Z,100875.63
2023-11-20T12:07:47.032Z,100880.09
2023-11-20T12:10:13.893Z,100881.09
2023-11-20T12:12:49.582Z,100887.25
2023-11-20T12:15:31.792Z,100880.25
2023-11-20T12:18:03.014Z,100873.28
2023-11-20T12:20:32.227Z,100876.63
2023-11-20T12:23:07.342Z,100880.69
2023-11-20T12:25:37.988Z,100874.88
2023-11-20T12:28:10.540Z,100875.53
2023-11-20T12:30:37.301Z,100886.75
2023-11-20T12:33:04.187Z,100878.25
2023-11-20T12:35:33.547Z,100879.09
2023-11-20T12:38:01.644Z,100874.75
2023-11-20T12:40:28.398Z,100875.06
2023-11-20T12:42:55.334Z,100880.38
2023-11-20T12:45:22.097Z,100880.59
2023-11-20T12:47:49.064Z,100875.19
2023-11-20T12:50:15.570Z,100873.06
2023-11-20T12:52:42.979Z,100862.69
2023-11-20T12:55:11.869Z,100871.31
2023-11-20T12:57:39.157Z,100859.84
2023-11-20T13:00:11.327Z,100854.72
2023-11-20T13:02:39.301Z,100852.97
2023-11-20T13:05:09.154Z,100852.97
2023-11-20T13:07:36.069Z,100842.50
2023-11-20T13:10:07.770Z,100846.50
2023-11-20T13:12:36.628Z,100839.81
2023-11-20T13:15:05.628Z,100836.28
2023-11-20T13:17:35.247Z,100837.25
2023-11-20T13:20:06.727Z,100842.50
2023-11-20T13:22:45.712Z,100838.84
2023-11-20T13:25:12.453Z,100839.59
2023-11-20T13:27:41.974Z,100838.75
2023-11-20T13:30:18.762Z,100842.66
2023-11-20T13:32:45.958Z,100846.53
2023-11-20T13:35:12.883Z,100842.72
2023-11-20T13:37:42.233Z,100842.66
2023-11-20T13:40:13.513Z,100851.00
2023-11-20T13:42:41.025Z,100843.16
2023-11-20T13:45:08.396Z,100839.66
2023-11-20T13:47:39.248Z,100841.09
2023-11-20T13:50:21.535Z,100845.44
2023-11-20T13:52:48.525Z,100836.75
2023-11-20T13:55:15.259Z,100840.34
2023-11-20T13:57:43.578Z,100837.69
2023-11-20T14:00:19.994Z,100837.69
2023-11-20T14:02:50.335Z,100831.53
2023-11-20T14:05:18.533Z,100826.94
2023-11-20T14:07:46.264Z,100824.28
2023-11-20T14:10:14.395Z,100830.09
2023-11-20T14:12:41.085Z,100822.44
2023-11-20T14:15:07.971Z,100824.13
2023-11-20T14:17:34.669Z,100827.03
2023-11-20T14:20:02.329Z,100822.03
2023-11-20T14:22:28.918Z,100826.53
2023-11-20T14:24:58.922Z,100824.31
2023-11-20T14:27:26.147Z,100836.00
2023-11-20T14:29:55.188Z,100829.34
2023-11-20T14:32:22.064Z,100832.97
2023-11-20T14:34:49.315Z,100834.88
2023-11-20T14:37:18.419Z,100826.91
2023-11-20T14:39:45.309Z,100832.56
2023-11-20T14:42:11.756Z,100833.53
2023-11-20T14:44:39.458Z,100830.78
2023-11-20T14:47:07.801Z,100825.53
2023-11-20T14:49:36.406Z,100833.75
2023-11-20T14:52:04.261Z,100841.00
2023-11-20T14:54:30.879Z,100831.56
2023-11-20T14:56:57.488Z,100840.50
2023-11-20T14:59:23.935Z,100836.13
2023-11-20T15:01:52.225Z,100836.03
2023-11-20T15:04:21.114Z,100834.44
2023-11-20T15:06:48.625Z,100829.22
2023-11-20T15:09:15.883Z,100836.25
2023-11-20T15:11:42.422Z,100834.44
2023-11-20T15:14:09.209Z,100833.69
2023-11-20T15:16:38.570Z,100838.19
2023-11-20T15:19:06.291Z,100840.00
2023-11-20T15:21:33.307Z,100838.28
2023-11-20T15:26:40.384Z,100833.91
2023-11-20T15:29:08.544Z,100831.38
2023-11-20T15:31:35.205Z,100829.56
2023-11-20T15:34:01.734Z,100828.09
2023-11-20T15:36:28.229Z,100845.03
2023-11-20T15:38:54.868Z,100851.41
2023-11-20T15:41:21.296Z,100844.63
2023-11-20T15:43:47.742Z,100859.00
2023-11-20T15:46:15.757Z,100853.06
2023-11-20T15:48:43.924Z,100854.00
2023-11-20T15:51:12.058Z,100860.28
2023-11-20T15:53:38.753Z,100859.53
2023-11-20T15:56:16.488Z,100858.69
2023-11-20T15:58:43.319Z,100856.16
2023-11-20T16:01:10.025Z,100858.81
2023-11-20T16:03:36.888Z,100867.88
2023-11-20T16:06:03.598Z,100860.00
2023-11-20T16:08:35.561Z,100863.72
2023-11-20T16:11:02.200Z,100866.38
2023-11-20T16:13:29.575Z,100859.47
2023-11-20T16:15:56.970Z,100858.75
2023-11-20T16:18:23.685Z,100873.84
2023-11-20T16:20:50.671Z,100865.22
2023-11-20T16:23:17.370Z,100868.75
2023-11-20T16:25:48.310Z,100867.88
2023-11-20T16:28:15.626Z,100874.25
2023-11-20T16:30:42.289Z,100869.91
2023-11-20T16:33:08.958Z,100870.88
2023-11-20T16:35:38.254Z,100871.94
2023-11-20T16:38:04.977Z,100876.44
2023-11-20T16:40:32.085Z,100876.63
2023-11-20T16:43:00.265Z,100879.53
2023-11-20T16:45:27.095Z,100874.06
2023-11-20T16:47:54.424Z,100878.53
2023-11-20T16:50:20.949Z,100881.44
2023-11-20T16:52:47.765Z,100878.13
2023-11-20T16:55:14.606Z,100873.66
2023-11-20T16:57:41.165Z,100878.44
2023-11-20T17:00:13.723Z,100874.41
2023-11-20T17:02:40.492Z,100887.06
2023-11-20T17:05:09.881Z,100884.53
2023-11-20T17:07:36.715Z,100884.63
2023-11-20T17:10:05.782Z,100889.94
2023-11-20T17:12:33.566Z,100894.50
2023-11-20T17:14:59.985Z,100892.81
2023-11-20T17:17:26.565Z,100892.81
2023-11-20T17:19:54.145Z,100897.38
2023-11-20T17:22:22.581Z,100902.81
2023-11-20T17:24:51.361Z,100895.91
2023-11-20T17:27:18.043Z,100897.16
2023-11-20T17:32:26.504Z,100906.31
2023-11-20T17:34:53.296Z,100909.19
2023-11-20T17:37:20.540Z,100910.13
2023-11-20T17:39:47.330Z,100919.06
2023-11-20T17:42:15.513Z,100918.09
2023-11-20T17:44:44.634Z,100920.66
2023-11-20T17:47:12.256Z,100920.66
2023-11-20T17:49:39.099Z,100922.47
2023-11-20T17:54:46.239Z,100925.22
2023-11-20T17:57:12.786Z,100925.13
2023-11-20T17:59:39.591Z,100931.81
2023-11-20T18:02:06.288Z,100925.44
2023-11-20T18:04:35.405Z,100933.41
2023-11-20T18:07:03.734Z,100937.13
2023-11-20T18:09:30.157Z,100941.38
2023-11-20T18:11:56.939Z,100945.09
2023-11-20T18:14:23.590Z,100942.44
2023-11-20T18:16:50.104Z,100941.66
2023-11-20T18:19:16.613Z,100945.28
2023-11-20T18:21:52.101Z,100949.56
2023-11-20T18:24:20.765Z,100952.84
2023-11-20T18:26:47.270Z,100955.50
2023-11-20T18:29:14.275Z,100953.81
2023-11-20T18:31:40.779Z,100950.31
2023-11-20T18:34:08.997Z,100955.50
2023-11-20T18:36:35.528Z,100956.34
2023-11-20T18:39:02.016Z,100958.16
2023-11-20T18:41:31.537Z,100958.16
2023-11-20T18:43:58.237Z,100959.00
2023-11-20T18:46:24.731Z,100965.38
2023-11-20T18:48:51.407Z,100969.84
2023-11-20T18:51:17.853Z,100963.88
2023-11-20T18:53:47.064Z,100964.94
2023-11-20T18:56:13.562Z,100975.13
2023-11-20T18:58:41.257Z,100975.97
2023-11-20T19:01:07.818Z,100967.25
2023-11-20T19:03:34.642Z,100970.91
2023-11-20T19:06:01.172Z,100969.97
2023-11-20T19:08:31.854Z,100975.50
2023-11-20T19:10:58.274Z,100969.13
2023-11-20T19:13:24.745Z,100963.84
2023-11-20T19:15:53.688Z,100968.09
2023-11-20T19:18:20.251Z,100967.38
2023-11-20T19:20:47.076Z,100972.88
2023-11-20T19:23:13.773Z,100972.56
2023-11-20T19:25:40.799Z,100976.19
2023-11-20T19:28:07.458Z,100978.41
2023-11-20T19:30:35.936Z,100986.06
2023-11-20T19:33:06.629Z,100980.31
2023-11-20T19:35:33.235Z,100989.47
2023-11-20T19:38:00.120Z,100982.69
2023-11-20T19:40:27.921Z,100976.06
2023-11-20T19:42:54.577Z,100981.28
2023-11-20T19:45:22.513Z,100987.56
2023-11-20T19:47:49.281Z,100987.56
2023-11-20T19:50:16.088Z,100990.22
2023-11-20T19:52:43.651Z,100990.66
2023-11-20T19:55:10.541Z,100996.28
2023-11-20T19:57:37.401Z,100992.00
2023-11-20T20:00:09.089Z,100995.63
2023-11-20T20:02:36.401Z,101002.22
2023-11-20T20:05:03.536Z,101003.06
2023-11-20T20:07:30.467Z,101003.81
2023-11-20T20:09:56.985Z,101008.91
2023-11-20T20:12:23.481Z,101005.50
2023-11-20T20:14:52.090Z,101011.88
2023-11-20T20:17:20.133Z,101008.91
2023-11-20T20:19:49.470Z,101011.38
2023-11-20T20:22:17.541Z,101015.84
2023-11-20T20:24:45.587Z,101016.69
2023-11-20T20:27:12.354Z,101017.75
2023-11-20T20:29:39.883Z,101019.75
2023-11-20T20:32:10.239Z,101025.28
2023-11-20T20:34:38.248Z,101025.38
2023-11-20T20:37:05.160Z,101027.28
2023-11-20T20:39:31.587Z,101018.88
2023-11-20T20:41:58.153Z,101026.09
2023-11-20T20:44:25.103Z,101021.53
2023-11-20T20:46:52.201Z,101021.22
2023-11-20T20:49:19.477Z,101032.59
2023-11-20T20:51:46.910Z,101034.19
2023-11-20T20:54:13.932Z,101036.31
2023-11-20T20:56:41.949Z,101033.41
2023-11-20T20:59:10.105Z,101040.44
2023-11-20T21:01:37.227Z,101036.06
2023-11-20T21:04:04.946Z,101040.31
2023-11-20T21:06:31.474Z,101048.63
2023-11-20T21:08:59.791Z,101039.13
2023-11-20T21:11:26.371Z,101039.78
2023-11-20T21:13:53.148Z,101041.69
2023-11-20T21:16:20.130Z,101041.78
2023-11-20T21:18:46.604Z,101050.91
2023-11-20T21:21:13.235Z,101054.72
2023-11-20T21:23:40.332Z,101055.88
2023-11-20T21:26:07.243Z,101062.16
2023-11-20T21:28:34.829Z,101063.47
2023-11-20T21:31:04.590Z,101070.72
2023-11-20T21:33:31.846Z,101074.00
2023-11-20T21:35:58.303Z,101076.03
2023-11-20T21:38:25.191Z,101077.06
2023-11-20T21:40:52.679Z,101077.16
2023-11-20T21:43:19.809Z,101080.00
2023-11-20T21:45:57.441Z,101068.09
2023-11-20T21:48:24.423Z,101076.06
2023-11-20T21:50:50.895Z,101077.94
2023-11-20T21:53:17.464Z,101083.69
2023-11-20T21:55:46.521Z,101089.38
2023-11-20T21:58:14.027Z,101096.50
2023-11-20T22:00:40.505Z,101095.66
2023-11-20T22:03:07.995Z,101097.53
2023-11-20T22:05:34.588Z,101099.34
2023-11-20T22:08:01.101Z,101102.19
2023-11-20T22:10:27.600Z,101099.94
2023-11-20T22:12:54.168Z,101106.19
2023-11-20T22:15:20.655Z,101107.13
2023-11-20T22:17:47.227Z,101111.69
2023-11-20T22:20:14.143Z,101104.28
2023-11-20T22:22:44.098Z,101106.19
2023-11-20T22:25:11.640Z,101116.81
2023-11-20T22:27:38.614Z,101117.91
2023-11-20T22:30:07.652Z,101116.78
2023-11-20T22:32:34.289Z,101124.81
2023-11-20T22:35:10.725Z,101116.19
2023-11-20T22:37:41.272Z,101119.81
2023-11-20T22:40:10.335Z,101123.25
2023-11-20T22:42:38.611Z,101115.44
2023-11-20T22:45:07.572Z,101124.47
2023-11-20T22:47:34.425Z,101123.69
2023-11-20T22:50:01.108Z,101121.09
2023-11-20T22:52:27.777Z,101129.16
2023-11-20T22:54:54.494Z,101123.88
2023-11-20T22:57:21.504Z,101122.31
2023-11-20T22:59:48.214Z,101123.47
2023-11-20T23:02:14.959Z,101111.16
2023-11-20T23:04:41.794Z,101113.03
2023-11-20T23:07:08.419Z,101115.88
2023-11-20T23:09:34.888Z,101121.25
2023-11-20T23:12:01.375Z,101124.19
2023-11-20T23:14:27.879Z,101131.38
2023-11-20T23:16:55.297Z,101132.41
2023-11-20T23:19:22.707Z,101141.38
2023-11-20T23:21:49.583Z,101136.44
2023-11-20T23:24:16.082Z,101138.44
2023-11-20T23:26:42.601Z,101135.28
2023-11-20T23:29:13.980Z,101137.16
2023-11-20T23:31:41.287Z,101133.78
2023-11-20T23:34:08.097Z,101131.44
2023-11-20T23:36:34.660Z,101130.69
2023-11-20T23:39:01.206Z,101137.09
2023-11-20T23:41:27.925Z,101131.13
2023-11-20T23:43:55.111Z,101131.13
2023-11-20T23:46:22.661Z,101136.44
2023-11-20T23:48:51.914Z,101132.06
2023-11-20T23:51:18.783Z,101136.72
2023-11-20T23:53:46.362Z,101145.56
2023-11-20T23:56:14.211Z,101141.13
2023-11-20T23:58:41.155Z,101142.06
